Mukdahan, Thailand
Current Conditions -  °F | °C
As of 4:00 AM on Friday 19 Dec 2014 (Local Time) from VTUU Reporting Station
Broken Clouds Broken Clouds  
Wind Chill: 63°   Ceiling: 30000
Heat Index: 63°   Visibility: 5mi
Dew Point: 54°   Wind: 6mph
Humidity: 72%   Direction: 10°N
Pressure: 30.03"   Gusts: NA
Location:  16.54°N, 104.72°E
Report Text: VTUU 182100Z 01005KT 8000 FEW120 BKN300 17/12 Q1017 A3004NOSIG
Loading
Personal Weather Stations






























Interactive Weather Map New forecast layout! Learn more

10-Day Weather Forecast

Advertisements
Track Severe Weather on mobile